Time;durP1;ratioP1;P1;durP2;ratioP2;P2;SDS_P1;SDS_P2;PMS_P1;PMS_P2;Temp;Humidity;BMP_temperature;BMP_pressure;BME280_temperature;BME280_humidity;BME280_pressure;Samples;Min_cycle;Max_cycle;Signal;HPM_P1;HPM_P2
2021/08/25 00:02:54;;;;;;;2.17;2.08;;;;;;;15.93;82.97;101447.44;6337566;28;20242;-75
2021/08/25 00:05:59;;;;;;;4.22;2.53;;;;;;;15.94;81.56;101425.22;6337664;28;20183;-74
2021/08/25 00:09:06;;;;;;;2.20;2.20;;;;;;;15.83;82.67;101442.53;6337704;28;20183;-75
2021/08/25 00:12:12;;;;;;;2.60;2.40;;;;;;;15.90;84.28;101414.91;6338961;28;20183;-75
2021/08/25 00:15:16;;;;;;;2.58;2.47;;;;;;;15.86;83.87;101411.81;6338492;28;20182;-75
2021/08/25 00:18:20;;;;;;;2.38;2.25;;;;;;;15.92;84.59;101410.03;6337456;28;20236;-75
2021/08/25 00:21:24;;;;;;;2.58;2.38;;;;;;;15.79;83.60;101397.34;6338594;28;20207;-74
2021/08/25 00:24:30;;;;;;;2.08;1.98;;;;;;;15.77;84.72;101388.44;6337294;28;20402;-75
2021/08/25 00:27:34;;;;;;;2.13;1.98;;;;;;;15.81;83.03;101386.91;6338327;28;20183;-75
2021/08/25 00:30:38;;;;;;;2.30;2.20;;;;;;;15.91;82.20;101356.88;6338175;28;20187;-75
2021/08/25 00:33:43;;;;;;;2.55;2.05;;;;;;;15.82;83.79;101352.81;6337105;28;20493;-75
2021/08/25 00:36:50;;;;;;;3.45;2.20;;;;;;;15.82;81.25;101341.81;6337989;28;20221;-75
2021/08/25 00:39:57;;;;;;;2.42;2.40;;;;;;;15.84;81.59;101323.16;6338218;28;20275;-74
2021/08/25 00:43:05;;;;;;;2.38;2.28;;;;;;;15.79;83.39;101303.78;6338213;28;20214;-74
2021/08/25 00:46:11;;;;;;;3.10;2.10;;;;;;;15.90;81.56;101293.81;6337864;28;20258;-74
2021/08/25 00:49:18;;;;;;;2.17;1.98;;;;;;;15.82;83.03;101270.25;6336828;28;20182;-75
2021/08/25 00:52:22;;;;;;;2.50;2.25;;;;;;;15.91;79.84;101263.34;6338063;28;20191;-74
2021/08/25 00:55:28;;;;;;;1.83;1.83;;;;;;;15.79;80.92;101247.91;6337244;28;20183;-75
2021/08/25 00:58:36;;;;;;;2.40;2.20;;;;;;;15.72;82.79;101237.03;6336620;28;20187;-75
2021/08/25 01:01:51;;;;;;;3.70;1.85;;;;;;;15.80;81.18;101238.56;6337397;28;20230;-74
2021/08/25 01:04:59;;;;;;;2.00;1.92;;;;;;;15.78;80.41;101236.06;6337043;28;20231;-74
2021/08/25 01:08:03;;;;;;;2.35;2.25;;;;;;;15.84;81.95;101229.63;6338015;28;20187;-75
2021/08/25 01:11:10;;;;;;;2.50;2.30;;;;;;;15.87;79.84;101212.59;6337784;28;20187;-75
2021/08/25 01:14:17;;;;;;;4.72;2.10;;;;;;;15.86;78.92;101224.69;6337488;28;20187;-75
2021/08/25 01:17:24;;;;;;;2.00;2.00;;;;;;;15.77;80.29;101212.38;6337677;28;20221;-75
2021/08/25 01:20:29;;;;;;;5.72;2.10;;;;;;;15.73;80.81;101218.63;6337364;28;20207;-75
2021/08/25 01:23:34;;;;;;;2.00;1.90;;;;;;;15.89;79.54;101206.88;6337652;28;20254;-75
2021/08/25 01:26:41;;;;;;;2.10;2.10;;;;;;;15.77;81.35;101195.06;6336543;28;20258;-75
2021/08/25 01:29:47;;;;;;;5.10;2.20;;;;;;;15.73;81.37;101194.69;6337146;28;20229;-74
2021/08/25 01:32:54;;;;;;;4.97;2.40;;;;;;;15.83;81.14;101194.06;6336227;28;20214;-74
2021/08/25 01:35:59;;;;;;;2.85;2.40;;;;;;;15.84;79.83;101180.09;6337534;28;20183;-74
2021/08/25 01:39:04;;;;;;;2.30;2.20;;;;;;;15.78;79.78;101181.06;6337047;28;20187;-75
2021/08/25 01:42:09;;;;;;;2.40;2.30;;;;;;;15.78;80.26;101169.22;6337383;28;20251;-74
2021/08/25 01:45:14;;;;;;;2.30;2.20;;;;;;;15.90;79.65;101167.25;6337055;28;20193;-74
2021/08/25 01:48:18;;;;;;;2.60;2.40;;;;;;;15.85;81.92;101154.22;6336969;28;20183;-74
2021/08/25 01:51:24;;;;;;;2.60;2.38;;;;;;;15.83;80.79;101167.41;6337319;28;20194;-74
2021/08/25 01:54:28;;;;;;;2.25;2.08;;;;;;;15.95;79.48;101154.44;6337313;28;20218;-74
2021/08/25 01:57:33;;;;;;;7.03;2.42;;;;;;;15.89;78.44;101132.56;6337231;28;20183;-74
2021/08/25 02:00:38;;;;;;;2.67;2.58;;;;;;;15.90;79.97;101140.56;6336300;28;20377;-74
2021/08/25 02:03:45;;;;;;;2.28;2.03;;;;;;;15.91;79.95;101130.41;6336335;28;20239;-75
2021/08/25 02:06:49;;;;;;;2.30;2.20;;;;;;;15.89;78.96;101127.91;6336810;28;20261;-75
2021/08/25 02:09:53;;;;;;;2.90;2.15;;;;;;;15.98;78.52;101126.44;6336297;28;20187;-75
2021/08/25 02:12:57;;;;;;;2.30;2.30;;;;;;;16.00;78.75;101115.16;6336693;28;20271;-75
2021/08/25 02:16:03;;;;;;;4.63;2.25;;;;;;;15.91;78.77;101103.72;6335667;28;20480;-75
2021/08/25 02:19:09;;;;;;;4.30;2.53;;;;;;;15.95;78.28;101112.31;6335630;28;20518;-75
2021/08/25 02:22:14;;;;;;;2.60;2.50;;;;;;;15.91;78.05;101091.88;6335580;28;20404;-74
2021/08/25 02:25:18;;;;;;;2.60;2.40;;;;;;;15.91;79.02;101076.22;6338285;28;20190;-75
2021/08/25 02:28:22;;;;;;;2.90;2.47;;;;;;;15.86;78.96;101067.88;6341477;28;20194;-75
2021/08/25 02:31:27;;;;;;;2.58;2.47;;;;;;;15.91;80.40;101064.38;6341463;28;20218;-75
2021/08/25 02:34:31;;;;;;;4.65;2.28;;;;;;;15.98;81.52;101059.53;6340934;28;20183;-75
2021/08/25 02:37:35;;;;;;;6.07;2.60;;;;;;;15.90;82.56;101040.69;6340821;28;20274;-75
2021/08/25 02:40:40;;;;;;;2.65;2.45;;;;;;;15.89;82.10;101034.38;6339677;28;20215;-75
2021/08/25 02:43:45;;;;;;;2.40;2.22;;;;;;;15.83;83.59;101040.84;6340374;28;20194;-75
2021/08/25 02:46:51;;;;;;;2.50;2.40;;;;;;;15.87;85.46;101019.19;6340656;28;20183;-75
2021/08/25 02:49:58;;;;;;;4.97;2.67;;;;;;;15.70;87.00;101023.78;6341008;28;20246;-75
2021/08/25 02:53:02;;;;;;;2.80;2.65;;;;;;;15.60;88.61;101014.28;6340126;28;20186;-75
2021/08/25 02:56:07;;;;;;;5.68;2.38;;;;;;;15.67;87.50;101011.38;6340098;28;20467;-75
2021/08/25 02:59:11;;;;;;;7.75;2.60;;;;;;;15.64;88.44;100998.94;6339324;28;20374;-75
2021/08/25 03:02:17;;;;;;;3.30;2.72;;;;;;;15.71;87.84;100998.81;6340464;28;20260;-75
2021/08/25 03:05:23;;;;;;;2.65;2.45;;;;;;;15.54;89.03;100986.91;6340157;28;20183;-75
2021/08/25 03:08:27;;;;;;;2.25;2.10;;;;;;;15.57;88.19;100975.41;6339132;28;20183;-75
2021/08/25 03:11:33;;;;;;;3.47;2.50;;;;;;;15.59;89.27;100976.00;6339037;28;20479;-75
2021/08/25 03:14:37;;;;;;;2.83;2.60;;;;;;;15.56;90.17;100973.78;6339018;28;20405;-75
2021/08/25 03:17:43;;;;;;;2.72;2.60;;;;;;;15.43;89.84;100971.28;6339301;28;20285;-75
2021/08/25 03:20:47;;;;;;;2.72;2.63;;;;;;;15.49;91.18;100959.31;6339542;28;20183;-75
2021/08/25 03:23:56;;;;;;;3.60;2.92;;;;;;;15.25;92.35;100949.47;6339134;28;20190;-75
2021/08/25 03:27:00;;;;;;;2.55;2.45;;;;;;;15.29;92.25;100950.66;6340025;28;20183;-75
2021/08/25 03:30:06;;;;;;;3.72;2.65;;;;;;;15.12;94.45;100933.28;6338605;28;20404;-75
2021/08/25 03:33:15;;;;;;;3.28;2.78;;;;;;;15.26;93.85;100945.63;6338402;28;20249;-75
2021/08/25 03:36:20;;;;;;;2.92;2.53;;;;;;;15.08;94.60;100927.44;6338396;28;20483;-75
2021/08/25 03:39:24;;;;;;;3.08;2.70;;;;;;;15.14;94.58;100923.72;6339863;28;20214;-75
2021/08/25 03:42:28;;;;;;;2.70;2.50;;;;;;;15.15;94.52;100917.13;6339268;28;20213;-75
2021/08/25 03:45:32;;;;;;;4.53;2.80;;;;;;;15.22;94.37;100906.84;6339530;28;20183;-75
2021/08/25 03:48:38;;;;;;;2.58;2.40;;;;;;;15.25;93.34;100911.84;6339190;28;20187;-74
2021/08/25 03:51:42;;;;;;;2.70;2.55;;;;;;;15.25;93.54;100905.50;6338031;28;20497;-74
2021/08/25 03:54:48;;;;;;;2.47;2.28;;;;;;;15.17;94.05;100894.91;6338122;28;20490;-74
2021/08/25 03:57:53;;;;;;;2.72;2.40;;;;;;;15.20;93.77;100892.47;6339309;28;20214;-75
2021/08/25 04:00:57;;;;;;;4.43;2.58;;;;;;;15.12;94.45;100883.81;6338801;28;20198;-75
2021/08/25 04:04:06;;;;;;;2.97;2.45;;;;;;;15.11;95.86;100876.63;6339077;28;20249;-75
2021/08/25 04:07:10;;;;;;;2.25;2.15;;;;;;;15.11;94.61;100887.63;6337684;28;20205;-75
2021/08/25 04:10:17;;;;;;;4.10;2.42;;;;;;;14.98;95.75;100877.78;6338780;28;20183;-74
2021/08/25 04:13:21;;;;;;;6.20;2.55;;;;;;;15.03;95.58;100870.47;6337521;28;20201;-74
2021/08/25 04:16:25;;;;;;;5.60;2.67;;;;;;;15.10;95.06;100858.50;6337401;28;20245;-75
2021/08/25 04:19:31;;;;;;;5.38;2.45;;;;;;;15.05;95.98;100856.47;6337616;28;20494;-74
2021/08/25 04:22:35;;;;;;;2.78;2.50;;;;;;;15.11;95.76;100849.16;6338308;28;20277;-74
2021/08/25 04:25:41;;;;;;;3.25;3.05;;;;;;;15.13;96.05;100830.50;6338660;28;20190;-74
2021/08/25 04:28:47;;;;;;;3.10;2.53;;;;;;;15.15;95.49;100828.38;6337848;28;20183;-74
2021/08/25 04:31:51;;;;;;;3.72;2.75;;;;;;;15.11;96.10;100810.69;6338501;28;20218;-74
2021/08/25 04:34:57;;;;;;;3.22;2.90;;;;;;;15.07;97.72;100811.19;6338526;28;20187;-75
2021/08/25 04:38:01;;;;;;;3.22;2.65;;;;;;;15.07;96.43;100817.78;6338024;28;20221;-74
2021/08/25 04:41:10;;;;;;;3.72;2.78;;;;;;;15.13;97.23;100808.53;6336981;28;20509;-75
2021/08/25 04:44:14;;;;;;;5.00;3.13;;;;;;;15.03;97.53;100799.03;6337796;28;20245;-74
2021/08/25 04:47:18;;;;;;;8.73;3.00;;;;;;;15.14;97.62;100788.22;6336795;28;20236;-75
2021/08/25 04:50:23;;;;;;;7.50;2.75;;;;;;;15.11;97.06;100783.22;6338044;28;20187;-75
2021/08/25 04:53:27;;;;;;;3.20;2.90;;;;;;;15.03;98.39;100777.06;6336745;28;20375;-75
2021/08/25 04:56:32;;;;;;;3.13;2.97;;;;;;;15.22;97.78;100774.06;6336971;28;20262;-75
2021/08/25 04:59:36;;;;;;;6.63;2.65;;;;;;;15.28;98.60;100762.09;6337524;28;20195;-74
2021/08/25 05:02:40;;;;;;;3.42;3.13;;;;;;;15.26;98.66;100769.72;6337433;28;20382;-74
2021/08/25 05:05:45;;;;;;;7.53;2.63;;;;;;;15.32;99.10;100749.50;6337248;28;20205;-75
2021/08/25 05:08:50;;;;;;;6.05;2.70;;;;;;;15.26;98.39;100743.09;6337729;28;20246;-75
2021/08/25 05:11:54;;;;;;;4.95;2.70;;;;;;;15.27;99.63;100739.25;6336626;28;20183;-75
2021/08/25 05:14:58;;;;;;;6.10;3.13;;;;;;;15.24;100.00;100744.41;6337617;28;20183;-75
2021/08/25 05:18:02;;;;;;;8.38;3.00;;;;;;;15.27;99.80;100743.94;6337079;28;20247;-74
2021/08/25 05:21:08;;;;;;;5.43;3.30;;;;;;;15.34;100.00;100750.06;6337021;28;20254;-74
2021/08/25 05:24:13;;;;;;;8.52;3.65;;;;;;;15.46;99.18;100742.59;6336091;28;20210;-74
2021/08/25 05:27:17;;;;;;;8.00;3.20;;;;;;;15.38;99.01;100723.78;6336969;28;20183;-74
2021/08/25 05:30:21;;;;;;;7.80;3.40;;;;;;;15.45;98.52;100718.94;6335946;28;20449;-75
2021/08/25 05:33:25;;;;;;;6.95;3.65;;;;;;;15.37;99.22;100716.59;6335972;28;20187;-75
2021/08/25 05:36:31;;;;;;;8.25;3.50;;;;;;;15.37;100.00;100722.09;6337205;28;20245;-74
2021/08/25 05:39:35;;;;;;;4.43;3.40;;;;;;;15.39;100.00;100725.41;6336874;28;20183;-74
2021/08/25 05:42:39;;;;;;;5.10;3.00;;;;;;;15.52;99.82;100714.94;6336663;28;20248;-74
2021/08/25 05:45:44;;;;;;;6.22;3.60;;;;;;;15.51;100.00;100706.97;6335995;28;20194;-74
2021/08/25 05:48:48;;;;;;;11.02;3.22;;;;;;;15.62;99.75;100708.75;6336980;28;20183;-74
2021/08/25 05:51:53;;;;;;;5.82;3.08;;;;;;;15.58;100.00;100702.13;6336994;28;20220;-74
2021/08/25 05:55:00;;;;;;;7.28;3.55;;;;;;;15.61;100.00;100696.09;6335543;28;20475;-74
2021/08/25 05:58:05;;;;;;;5.40;3.30;;;;;;;15.65;100.00;100697.25;6336513;28;20237;-75
2021/08/25 06:01:12;;;;;;;6.80;3.55;;;;;;;15.72;100.00;100681.41;6339314;28;20199;-74
2021/08/25 06:04:16;;;;;;;3.75;3.35;;;;;;;15.75;100.00;100686.41;6341525;28;20245;-75
2021/08/25 06:07:23;;;;;;;4.57;3.45;;;;;;;15.82;100.00;100687.03;6340474;28;20372;-75
2021/08/25 06:10:27;;;;;;;5.35;3.20;;;;;;;15.93;100.00;100683.34;6341181;28;20183;-75
2021/08/25 06:13:32;;;;;;;3.60;3.30;;;;;;;15.99;100.00;100682.31;6341230;28;20209;-75
2021/08/25 06:16:36;;;;;;;7.82;3.33;;;;;;;15.98;100.00;100686.16;6341097;28;20261;-75
2021/08/25 06:19:42;;;;;;;6.22;3.40;;;;;;;15.96;100.00;100677.31;6340041;28;20437;-75
2021/08/25 06:22:47;;;;;;;4.03;3.60;;;;;;;15.98;100.00;100680.66;6340341;28;20194;-75
2021/08/25 06:25:52;;;;;;;11.88;3.75;;;;;;;16.02;100.00;100692.78;6340911;28;20214;-75
2021/08/25 06:28:56;;;;;;;7.28;3.97;;;;;;;16.09;100.00;100685.19;6340615;28;20190;-74
2021/08/25 06:32:00;;;;;;;9.48;3.97;;;;;;;16.28;99.02;100685.66;6339494;28;20272;-74
2021/08/25 06:35:05;;;;;;;6.15;3.45;;;;;;;16.11;100.00;100685.75;6340053;28;20194;-73
2021/08/25 06:38:13;;;;;;;9.68;3.58;;;;;;;16.17;100.00;100678.41;6341022;28;20229;-73
2021/08/25 06:41:17;;;;;;;6.63;3.58;;;;;;;16.18;99.21;100663.53;6339427;28;20249;-74
2021/08/25 06:44:21;;;;;;;8.52;3.60;;;;;;;16.34;98.96;100664.53;6340789;28;20282;-74
2021/08/25 06:47:26;;;;;;;8.60;3.80;;;;;;;16.42;98.47;100670.41;6340445;28;20183;-73
2021/08/25 06:50:30;;;;;;;5.72;3.83;;;;;;;16.41;99.29;100662.44;6339665;28;20218;-73
2021/08/25 06:53:36;;;;;;;3.60;3.30;;;;;;;16.54;99.03;100645.50;6340637;28;20187;-74
2021/08/25 06:56:40;;;;;;;5.43;3.67;;;;;;;16.58;98.57;100652.16;6339084;28;20415;-73
2021/08/25 06:59:44;;;;;;;5.78;3.47;;;;;;;16.67;98.69;100656.94;6340377;28;20234;-74
2021/08/25 07:02:50;;;;;;;10.25;3.40;;;;;;;16.67;97.80;100656.94;6339891;28;20371;-77
2021/08/25 07:05:54;;;;;;;3.65;3.15;;;;;;;16.57;99.39;100653.25;6339981;28;20213;-74
2021/08/25 07:09:00;;;;;;;6.68;3.33;;;;;;;16.72;96.95;100653.38;6340016;28;20183;-74
2021/08/25 07:12:05;;;;;;;6.57;3.05;;;;;;;16.65;96.64;100639.00;6338373;28;20183;-75
2021/08/25 07:15:15;;;;;;;9.45;3.67;;;;;;;16.60;97.98;100634.28;6338546;28;20374;-75
2021/08/25 07:18:20;;;;;;;5.22;3.35;;;;;;;16.86;96.98;100640.84;6338425;28;20475;-75
2021/08/25 07:21:23;;;;;;;4.88;3.17;;;;;;;17.00;95.99;100628.28;6338945;28;20198;-75
2021/08/25 07:24:29;;;;;;;7.40;4.00;;;;;;;17.04;94.84;100623.91;6339597;28;20214;-75
2021/08/25 07:27:33;;;;;;;3.97;3.63;;;;;;;17.02;95.55;100631.63;6339584;28;20204;-75
2021/08/25 07:30:37;;;;;;;3.60;3.35;;;;;;;17.08;94.98;100625.03;6339920;28;20190;-75
2021/08/25 07:33:42;;;;;;;3.50;3.20;;;;;;;17.18;93.54;100611.31;6339729;28;20186;-74
2021/08/25 07:36:47;;;;;;;3.75;3.10;;;;;;;17.15;93.50;100602.75;6339737;28;20183;-75
2021/08/25 07:39:52;;;;;;;6.90;3.35;;;;;;;17.08;92.82;100607.66;6339262;28;20183;-74
2021/08/25 07:42:57;;;;;;;3.45;3.17;;;;;;;17.06;93.38;100605.19;6339386;28;20183;-75
2021/08/25 07:46:04;;;;;;;12.73;3.60;;;;;;;17.19;92.27;100604.72;6338521;28;20206;-75
2021/08/25 07:49:08;;;;;;;6.03;2.92;;;;;;;17.13;92.42;100594.75;6339038;28;20187;-75
2021/08/25 07:52:13;;;;;;;4.50;3.10;;;;;;;17.16;92.21;100585.09;6337996;28;20501;-75
2021/08/25 07:55:18;;;;;;;6.28;3.40;;;;;;;17.13;91.42;100592.00;6339096;28;20218;-75
2021/08/25 07:58:24;;;;;;;4.97;3.00;;;;;;;17.21;91.79;100582.38;6337932;28;20214;-75
2021/08/25 08:01:47;;;;;;;3.63;3.38;;;;;;;17.38;90.66;100581.09;6338098;28;20596;-75
2021/08/25 08:04:51;;;;;;;6.75;3.05;;;;;;;17.45;89.74;100584.47;6338236;28;20410;-75
2021/08/25 08:07:57;;;;;;;5.40;3.40;;;;;;;17.49;90.72;100571.78;6339148;28;20254;-75
2021/08/25 08:11:02;;;;;;;4.57;3.20;;;;;;;17.51;88.67;100575.09;6338071;28;20221;-75
2021/08/25 08:14:07;;;;;;;2.40;2.20;;;;;;;17.32;88.06;100571.16;6337709;28;20501;-75
2021/08/25 08:17:16;;;;;;;2.85;2.60;;;;;;;17.48;88.34;100581.19;6337368;28;20474;-75
2021/08/25 08:20:20;;;;;;;3.40;2.78;;;;;;;17.53;84.59;100574.88;6338748;28;20184;-75
2021/08/25 08:23:24;;;;;;;2.45;2.35;;;;;;;17.69;83.85;100570.25;6337592;28;20246;-75
2021/08/25 08:26:34;;;;;;;3.08;2.88;;;;;;;17.81;85.11;100562.56;6337169;28;20436;-75
2021/08/25 08:29:41;;;;;;;3.13;2.50;;;;;;;17.87;78.94;100555.97;6337117;28;20471;-75
2021/08/25 08:32:48;;;;;;;5.43;2.30;;;;;;;17.99;78.25;100542.75;6338382;28;20186;-77
2021/08/25 08:35:52;;;;;;;3.40;1.90;;;;;;;17.86;78.87;100554.31;6337442;28;20218;-75
2021/08/25 08:38:56;;;;;;;2.60;1.98;;;;;;;17.85;74.98;100553.47;6338201;28;20182;-75
2021/08/25 08:42:01;;;;;;;2.03;1.92;;;;;;;17.71;72.72;100548.75;6337849;28;20255;-75
2021/08/25 08:45:07;;;;;;;3.10;2.25;;;;;;;17.79;73.91;100538.03;6337661;28;20217;-75
2021/08/25 08:48:16;;;;;;;1.92;1.83;;;;;;;17.81;72.15;100544.09;6338078;28;20183;-75
2021/08/25 08:51:22;;;;;;;1.77;1.67;;;;;;;17.75;71.02;100547.91;6336534;28;20341;-75
2021/08/25 08:54:27;;;;;;;2.00;1.80;;;;;;;17.70;71.49;100533.28;6336661;28;20459;-75
2021/08/25 08:57:33;;;;;;;2.05;1.60;;;;;;;17.72;68.87;100531.09;6336569;28;20439;-75
2021/08/25 09:00:40;;;;;;;1.30;1.30;;;;;;;17.67;69.35;100533.84;6337424;28;20187;-75
2021/08/25 09:03:44;;;;;;;1.58;1.58;;;;;;;17.51;66.19;100530.16;6337232;28;20298;-76
2021/08/25 09:06:51;;;;;;;1.83;1.70;;;;;;;17.66;64.95;100526.66;6336685;28;20206;-76
2021/08/25 09:09:56;;;;;;;1.60;1.50;;;;;;;17.91;67.02;100521.19;6337663;28;20214;-75
2021/08/25 09:13:04;;;;;;;1.60;1.58;;;;;;;17.92;68.68;100520.91;6336599;28;20198;-75
2021/08/25 09:16:25;;;;;;;1.90;1.40;;;;;;;17.92;67.86;100520.09;6337416;28;20187;-75
2021/08/25 09:19:35;;;;;;;4.22;1.60;;;;;;;17.89;69.09;100531.69;6336304;28;20480;-75
2021/08/25 09:22:41;;;;;;;4.97;1.50;;;;;;;17.79;66.21;100520.63;6337174;28;20183;-75
2021/08/25 09:25:46;;;;;;;1.40;1.40;;;;;;;17.73;66.61;100517.03;6336326;28;20210;-75
2021/08/25 09:28:52;;;;;;;1.83;1.73;;;;;;;17.73;65.18;100521.69;6337382;28;20183;-75
2021/08/25 09:31:57;;;;;;;1.50;1.50;;;;;;;17.79;65.67;100526.97;6336997;28;20183;-76
2021/08/25 09:35:03;;;;;;;1.70;1.70;;;;;;;17.76;65.43;100521.16;6339266;28;20262;-75
2021/08/25 09:38:07;;;;;;;2.03;1.73;;;;;;;17.85;65.81;100519.53;6342560;28;20189;-75
2021/08/25 09:41:13;;;;;;;3.92;1.80;;;;;;;17.83;64.54;100521.72;6342501;28;20189;-75
2021/08/25 09:44:18;;;;;;;1.33;1.33;;;;;;;17.58;63.66;100527.16;6341480;28;20268;-75
2021/08/25 09:47:48;;;;;;;1.40;1.40;;;;;;;17.62;64.27;100520.00;6342389;28;20282;-75
2021/08/25 09:50:58;;;;;;;2.72;0.98;;;;;;;17.59;63.82;100526.09;6340894;28;20245;-75
2021/08/25 09:54:05;;;;;;;1.20;1.20;;;;;;;17.51;64.12;100539.25;6342281;28;20183;-75
2021/08/25 09:57:13;;;;;;;1.30;1.20;;;;;;;17.65;63.76;100524.97;6341127;28;20241;-75
2021/08/25 10:00:19;;;;;;;1.55;0.98;;;;;;;17.73;62.37;100513.44;6341655;28;20186;-75
2021/08/25 10:03:24;;;;;;;1.58;1.10;;;;;;;17.82;62.78;100531.94;6341578;28;20226;-74
2021/08/25 10:06:31;;;;;;;0.85;0.80;;;;;;;17.69;61.55;100523.34;6340365;28;20577;-75
2021/08/25 10:09:35;;;;;;;0.80;0.80;;;;;;;17.43;61.87;100528.75;6341707;28;20182;-74
2021/08/25 10:12:42;;;;;;;0.80;0.80;;;;;;;17.32;63.72;100531.72;6341614;28;20190;-74
2021/08/25 10:15:48;;;;;;;1.30;0.90;;;;;;;17.39;67.00;100533.13;6340221;28;20490;-75
2021/08/25 10:18:54;;;;;;;0.77;0.77;;;;;;;17.29;65.83;100533.09;6340440;28;20190;-75
2021/08/25 10:21:58;;;;;;;0.98;0.90;;;;;;;17.19;67.24;100521.19;6341084;28;20183;-75
2021/08/25 10:25:05;;;;;;;1.00;1.00;;;;;;;17.37;70.23;100518.78;6339840;28;20215;-75
2021/08/25 10:28:12;;;;;;;0.90;0.90;;;;;;;17.32;72.05;100527.03;6340211;28;20183;-75
2021/08/25 10:31:18;;;;;;;0.90;0.90;;;;;;;17.62;72.93;100520.00;6341033;28;20183;-75
2021/08/25 10:34:27;;;;;;;0.90;0.90;;;;;;;17.56;68.87;100512.81;6340749;28;20183;-75
2021/08/25 10:37:31;;;;;;;1.20;1.20;;;;;;;17.63;69.46;100521.69;6339665;28;20218;-75
2021/08/25 10:40:37;;;;;;;1.30;1.00;;;;;;;17.56;71.12;100526.63;6343453;28;20214;-74
2021/08/25 10:43:45;;;;;;;1.17;1.10;;;;;;;17.68;69.00;100519.75;6341223;28;20236;-75
2021/08/25 10:46:52;;;;;;;3.22;0.85;;;;;;;17.85;70.98;100514.00;6338856;28;20207;-76
2021/08/25 10:50:10;;;;;;;1.55;0.98;;;;;;;17.96;67.91;100515.69;6339498;28;20183;-75
2021/08/25 10:53:41;;;;;;;0.82;0.70;;;;;;;17.42;63.34;100534.53;6339869;28;20203;-75
2021/08/25 10:56:47;;;;;;;0.60;0.60;;;;;;;17.40;63.01;100517.44;6340380;28;20258;-75
2021/08/25 10:59:52;;;;;;;0.70;0.70;;;;;;;17.33;62.76;100522.38;6339075;28;20467;-75
2021/08/25 11:02:59;;;;;;;1.35;0.70;;;;;;;17.32;63.75;100510.50;6339206;28;20302;-75
2021/08/25 11:06:04;;;;;;;2.83;0.65;;;;;;;17.39;63.86;100516.59;6339235;28;20281;-76
2021/08/25 11:09:20;;;;;;;0.90;0.90;;;;;;;17.59;63.80;100509.53;6340146;28;20190;-75
2021/08/25 11:12:25;;;;;;;0.63;0.63;;;;;;;17.48;63.71;100498.44;6340253;28;20183;-74
2021/08/25 11:15:32;;;;;;;1.40;1.30;;;;;;;17.33;61.76;100501.09;6338895;28;20471;-74
2021/08/25 11:18:41;;;;;;;0.90;0.90;;;;;;;17.46;64.31;100500.63;6339973;28;20190;-74
2021/08/25 11:21:45;;;;;;;0.75;0.75;;;;;;;17.53;63.53;100489.38;6338597;28;20467;-75
2021/08/25 11:24:54;;;;;;;0.88;0.70;;;;;;;17.50;62.13;100490.72;6339466;28;20221;-75
2021/08/25 11:27:59;;;;;;;0.63;0.63;;;;;;;17.61;62.59;100501.81;6339595;28;20242;-74
2021/08/25 11:31:03;;;;;;;0.57;0.57;;;;;;;17.40;62.29;100485.16;6339128;28;20210;-75
2021/08/25 11:34:12;;;;;;;0.70;0.70;;;;;;;17.49;61.70;100483.53;6338375;28;20497;-75
2021/08/25 11:37:22;;;;;;;0.80;0.80;;;;;;;17.30;63.02;100485.13;6339555;28;20187;-75
2021/08/25 11:40:28;;;;;;;0.80;0.80;;;;;;;17.54;61.88;100470.91;6339290;28;20183;-74
2021/08/25 11:43:34;;;;;;;1.40;0.93;;;;;;;17.70;62.30;100467.91;6337975;28;20228;-75
2021/08/25 11:46:41;;;;;;;0.60;0.60;;;;;;;17.62;62.75;100459.31;6339561;28;20210;-75
2021/08/25 11:49:50;;;;;;;0.80;0.80;;;;;;;17.75;63.14;100458.78;6337946;28;20190;-75
2021/08/25 11:53:15;;;;;;;0.70;0.70;;;;;;;17.99;62.74;100459.94;6339073;28;20259;-75
2021/08/25 11:56:19;;;;;;;0.60;0.60;;;;;;;17.97;61.16;100456.63;6339196;28;20251;-75
2021/08/25 11:59:26;;;;;;;0.57;0.57;;;;;;;18.06;61.46;100455.81;6336599;28;20474;-75
2021/08/25 12:02:30;;;;;;;1.85;0.82;;;;;;;17.70;59.49;100451.34;6338491;28;20233;-75
2021/08/25 12:05:37;;;;;;;1.08;0.70;;;;;;;17.71;60.39;100453.00;6337950;28;20214;-75
2021/08/25 12:08:45;;;;;;;1.35;0.60;;;;;;;17.18;60.26;100503.81;6338721;28;20354;-75
2021/08/25 12:11:55;;;;;;;0.63;0.63;;;;;;;16.83;64.51;100489.84;6338341;28;20229;-74
2021/08/25 12:15:01;;;;;;;0.80;0.40;;;;;;;16.66;68.28;100483.69;6338822;28;20293;-76
2021/08/25 12:18:05;;;;;;;3.72;0.50;;;;;;;16.57;69.72;100479.75;6338574;28;20192;-75
2021/08/25 12:21:14;;;;;;;0.68;0.50;;;;;;;16.46;71.30;100486.25;6337364;28;20241;-75
2021/08/25 12:24:19;;;;;;;0.60;0.60;;;;;;;16.47;71.03;100474.13;6337295;28;20221;-75
2021/08/25 12:27:23;;;;;;;0.50;0.50;;;;;;;16.25;72.11;100477.00;6338095;28;20218;-75
2021/08/25 12:30:34;;;;;;;0.50;0.50;;;;;;;16.12;70.59;100478.28;6338144;28;20252;-75
2021/08/25 12:33:38;;;;;;;0.40;0.40;;;;;;;16.46;70.80;100480.75;6338153;28;20189;-75
2021/08/25 12:36:55;;;;;;;0.60;0.60;;;;;;;16.42;72.79;100474.09;6338198;28;20289;-75
2021/08/25 12:40:19;;;;;;;0.70;0.70;;;;;;;16.68;71.60;100467.72;6336832;28;20438;-74
2021/08/25 12:43:24;;;;;;;0.68;0.68;;;;;;;16.52;70.73;100471.41;6337792;28;20187;-75
2021/08/25 12:46:28;;;;;;;0.50;0.50;;;;;;;16.27;71.16;100470.16;6336678;28;20526;-75
2021/08/25 12:49:34;;;;;;;0.40;0.40;;;;;;;16.33;69.07;100470.19;6337801;28;20228;-75
2021/08/25 12:52:40;;;;;;;0.60;0.60;;;;;;;16.45;71.26;100465.31;6336585;28;20183;-75
2021/08/25 12:55:44;;;;;;;2.17;0.60;;;;;;;16.50;68.60;100455.16;6336602;28;20352;-75
2021/08/25 12:58:48;;;;;;;0.88;0.60;;;;;;;16.29;66.45;100470.69;6336494;28;20187;-75
2021/08/25 13:01:52;;;;;;;0.50;0.50;;;;;;;16.42;66.85;100476.84;6337294;28;20202;-75
2021/08/25 13:04:56;;;;;;;0.55;0.55;;;;;;;16.33;65.76;100472.94;6337051;28;20234;-75
2021/08/25 13:08:03;;;;;;;0.60;0.60;;;;;;;16.33;66.58;100464.69;6337367;28;20207;-74
2021/08/25 13:11:07;;;;;;;0.40;0.40;;;;;;;16.54;65.97;100463.75;6337314;28;20183;-75
2021/08/25 13:14:14;;;;;;;1.20;1.20;;;;;;;16.65;64.92;100468.22;6336175;28;20580;-75
2021/08/25 13:17:20;;;;;;;0.90;0.60;;;;;;;16.84;65.12;100463.97;6336083;28;20471;-75
2021/08/25 13:20:25;;;;;;;0.40;0.40;;;;;;;16.77;66.88;100463.34;6336251;28;20275;-75
2021/08/25 13:23:30;;;;;;;0.70;0.43;;;;;;;16.59;65.96;100461.06;6336138;28;20182;-75
2021/08/25 13:26:36;;;;;;;0.98;0.60;;;;;;;16.49;64.81;100470.03;6336029;28;20440;-75
2021/08/25 13:29:40;;;;;;;0.60;0.60;;;;;;;16.60;66.64;100466.28;6337308;28;20207;-75
2021/08/25 13:32:44;;;;;;;0.63;0.63;;;;;;;16.55;65.15;100457.16;6337013;28;20183;-75
2021/08/25 13:35:48;;;;;;;0.70;0.70;;;;;;;16.30;65.23;100466.03;6335972;28;20533;-75
2021/08/25 13:38:54;;;;;;;0.60;0.60;;;;;;;16.42;66.40;100455.66;6336821;28;20186;-75
2021/08/25 13:41:59;;;;;;;0.70;0.70;;;;;;;16.12;65.57;100455.44;6336862;28;20182;-75
2021/08/25 13:45:04;;;;;;;0.50;0.50;;;;;;;16.20;65.70;100453.00;6336895;28;20183;-75
2021/08/25 13:48:13;;;;;;;1.98;0.50;;;;;;;16.11;65.65;100449.09;6335636;28;20521;-75
2021/08/25 13:51:17;;;;;;;0.43;0.43;;;;;;;16.21;65.97;100443.66;6336741;28;20301;-75
2021/08/25 13:54:23;;;;;;;0.55;0.55;;;;;;;16.33;66.49;100446.25;6336531;28;20228;-75
2021/08/25 13:57:27;;;;;;;1.45;0.68;;;;;;;16.41;66.66;100450.44;6336078;28;20283;-75
2021/08/25 14:00:31;;;;;;;0.65;0.60;;;;;;;16.40;68.37;100446.00;6335493;28;20360;-75
2021/08/25 14:03:36;;;;;;;0.70;0.70;;;;;;;16.57;67.71;100435.69;6337336;28;20275;-75
2021/08/25 14:06:40;;;;;;;1.60;0.80;;;;;;;16.71;66.26;100442.38;6336149;28;20193;-75
2021/08/25 14:09:45;;;;;;;0.50;0.50;;;;;;;16.69;66.11;100444.59;6317659;28;20340;-75
2021/08/25 14:12:52;;;;;;;0.40;0.40;;;;;;;16.73;63.88;100437.44;6337008;28;20190;-75
2021/08/25 14:15:57;;;;;;;2.60;0.60;;;;;;;16.81;64.30;100436.94;6335536;28;20455;-75
2021/08/25 14:19:02;;;;;;;1.35;0.57;;;;;;;16.95;62.33;100438.09;6335585;28;20188;-76
2021/08/25 14:22:07;;;;;;;0.60;0.60;;;;;;;17.14;61.92;100435.69;6338199;28;20218;-75
2021/08/25 14:25:13;;;;;;;0.52;0.52;;;;;;;17.09;61.43;100433.75;6341165;28;20183;-75